Time;durP1;ratioP1;P1;durP2;ratioP2;P2;SDS_P1;SDS_P2;PMS_P1;PMS_P2;Temp;Humidity;BMP_temperature;BMP_pressure;BME280_temperature;BME280_humidity;BME280_pressure;Samples;Min_cycle;Max_cycle;Signal;HPM_P1;HPM_P2
2023/07/29 00:01:59;;;;;;;0.45;0.45;;;18.20;99.90;;;;;;5007069;28;20034;-72
2023/07/29 00:04:25;;;;;;;0.30;0.30;;;17.90;99.90;;;;;;5006572;28;20069;-71
2023/07/29 00:06:51;;;;;;;0.43;0.43;;;18.10;99.90;;;;;;5003109;28;20049;-72
2023/07/29 00:09:16;;;;;;;1.55;0.68;;;17.90;99.90;;;;;;5007525;28;20054;-71
2023/07/29 00:11:42;;;;;;;0.30;0.30;;;17.90;99.90;;;;;;5001349;28;20378;-72
2023/07/29 00:14:08;;;;;;;0.60;0.60;;;18.10;99.90;;;;;;5006475;28;20385;-73
2023/07/29 00:16:33;;;;;;;1.15;1.15;;;17.70;99.90;;;;;;5000806;28;20783;-73
2023/07/29 00:18:59;;;;;;;0.32;0.32;;;17.70;99.90;;;;;;4980836;28;20038;-71
2023/07/29 00:21:25;;;;;;;0.47;0.47;;;17.80;99.90;;;;;;4995283;28;20115;-72
2023/07/29 00:23:50;;;;;;;0.55;0.55;;;18.00;99.90;;;;;;4997911;28;20716;-72
2023/07/29 00:26:16;;;;;;;0.30;0.30;;;17.90;99.90;;;;;;4995363;28;20482;-71
2023/07/29 00:28:42;;;;;;;0.63;0.50;;;18.00;99.90;;;;;;4997510;28;20548;-72
2023/07/29 00:31:07;;;;;;;0.40;0.40;;;17.90;99.90;;;;;;4997352;28;20038;-72
2023/07/29 00:33:33;;;;;;;0.35;0.35;;;17.70;99.90;;;;;;4980732;28;20050;-71
2023/07/29 00:36:01;;;;;;;0.52;0.52;;;17.70;99.90;;;;;;4986867;28;20041;-72
2023/07/29 00:38:27;;;;;;;0.82;0.77;;;17.60;99.90;;;;;;4999953;28;20046;-72
2023/07/29 00:40:53;;;;;;;0.30;0.30;;;;;;;;;;5003375;28;20080;-72
2023/07/29 00:43:20;;;;;;;0.35;0.35;;;17.70;99.90;;;;;;5005926;28;20121;-72
2023/07/29 00:45:50;;;;;;;0.40;0.40;;;17.70;99.90;;;;;;5002676;28;20037;-72
2023/07/29 00:48:16;;;;;;;0.40;0.40;;;;;;;;;;5004656;28;20041;-72
2023/07/29 00:50:42;;;;;;;0.70;0.70;;;17.50;99.90;;;;;;5007260;28;20049;-72
2023/07/29 00:53:07;;;;;;;0.40;0.40;;;17.40;99.90;;;;;;5004709;28;20046;-72
2023/07/29 00:55:33;;;;;;;0.45;0.45;;;17.40;99.90;;;;;;5001599;28;20042;-72
2023/07/29 00:58:00;;;;;;;0.65;0.65;;;;;;;;;;5006621;28;20203;-71
2023/07/29 01:00:26;;;;;;;0.50;0.50;;;17.40;99.90;;;;;;5005128;28;20057;-71
2023/07/29 01:02:54;;;;;;;0.70;0.70;;;;;;;;;;4988808;28;20065;-72
2023/07/29 01:05:21;;;;;;;0.40;0.40;;;17.40;99.90;;;;;;5007555;28;20046;-71
2023/07/29 01:07:50;;;;;;;1.27;0.65;;;;;;;;;;5004740;28;20096;-71
2023/07/29 01:10:45;;;;;;;0.80;0.80;;;17.40;99.90;;;;;;5004455;28;20398;-72
2023/07/29 01:13:18;;;;;;;0.70;0.70;;;;;;;;;;5003985;28;20100;-71
2023/07/29 01:15:58;;;;;;;0.60;0.60;;;17.20;99.90;;;;;;5004626;28;20401;-71
2023/07/29 01:18:29;;;;;;;0.30;0.30;;;17.40;99.90;;;;;;4984769;28;20084;-72
2023/07/29 01:21:00;;;;;;;0.30;0.30;;;;;;;;;;5003255;28;20406;-71
2023/07/29 01:23:30;;;;;;;0.47;0.47;;;17.30;99.90;;;;;;5002588;28;20038;-72
2023/07/29 01:25:55;;;;;;;0.50;0.50;;;17.20;99.90;;;;;;5002144;28;20042;-72
2023/07/29 01:28:59;;;;;;;0.40;0.40;;;;;;;;;;4999500;28;20112;-71
2023/07/29 01:31:34;;;;;;;0.35;0.35;;;;;;;;;;4999278;28;20492;-71
2023/07/29 01:36:32;;;;;;;1.65;0.70;;;17.40;99.90;;;;;;5022536;28;20069;-72
2023/07/29 01:38:59;;;;;;;0.40;0.40;;;;;;;;;;5021773;28;20053;-72
2023/07/29 01:41:26;;;;;;;0.57;0.57;;;;;;;;;;5005482;28;20041;-72
2023/07/29 01:43:53;;;;;;;0.60;0.60;;;;;;;;;;5025072;28;20037;-72
2023/07/29 01:46:19;;;;;;;0.65;0.65;;;;;;;;;;5006218;28;20088;-71
2023/07/29 01:48:45;;;;;;;0.70;0.70;;;;;;;;;;5025946;28;20551;-73
2023/07/29 01:51:12;;;;;;;0.40;0.40;;;17.20;99.90;;;;;;5007391;28;20092;-72
2023/07/29 01:53:38;;;;;;;0.45;0.45;;;17.10;99.90;;;;;;5025626;28;20041;-72
2023/07/29 01:56:04;;;;;;;0.30;0.30;;;;;;;;;;5026136;28;20041;-71
2023/07/29 01:58:30;;;;;;;0.60;0.60;;;;;;;;;;5021893;28;20030;-72
2023/07/29 02:00:56;;;;;;;1.17;0.70;;;17.10;99.90;;;;;;5025435;28;20037;-71
2023/07/29 02:03:22;;;;;;;0.60;0.60;;;;;;;;;;5025688;28;20144;-72
2023/07/29 02:05:48;;;;;;;0.40;0.40;;;;;;;;;;5007915;28;20045;-72
2023/07/29 02:08:14;;;;;;;0.60;0.60;;;;;;;;;;5024639;28;20524;-71
2023/07/29 02:10:42;;;;;;;0.43;0.43;;;;;;;;;;5024608;28;20041;-72
2023/07/29 02:13:08;;;;;;;0.40;0.40;;;;;;;;;;5037695;28;20053;-71
2023/07/29 02:15:34;;;;;;;0.50;0.50;;;;;;;;;;5019113;28;20045;-72
2023/07/29 02:18:01;;;;;;;0.63;0.63;;;;;;;;;;5006244;28;20040;-73
2023/07/29 02:20:28;;;;;;;0.30;0.30;;;;;;;;;;5024229;28;20038;-71
2023/07/29 02:22:53;;;;;;;0.60;0.60;;;17.10;99.90;;;;;;5027234;28;20040;-72
2023/07/29 02:25:19;;;;;;;1.08;0.93;;;;;;;;;;5034695;28;20083;-72
2023/07/29 02:27:45;;;;;;;0.32;0.32;;;16.90;99.90;;;;;;5024200;28;20045;-71
2023/07/29 02:30:12;;;;;;;0.22;0.22;;;16.80;99.90;;;;;;5021048;28;20562;-72
2023/07/29 02:32:38;;;;;;;0.40;0.40;;;;;;;;;;5039904;28;20107;-72
2023/07/29 02:35:04;;;;;;;0.40;0.40;;;;;;;;;;5025032;28;20488;-72
2023/07/29 02:37:31;;;;;;;0.60;0.60;;;;;;;;;;5023344;28;20052;-72
2023/07/29 02:39:57;;;;;;;0.52;0.45;;;;;;;;;;5026860;28;20501;-72
2023/07/29 02:42:23;;;;;;;0.40;0.40;;;;;;;;;;5025418;28;20037;-72
2023/07/29 02:44:49;;;;;;;0.40;0.40;;;17.00;99.90;;;;;;5022500;28;20099;-72
2023/07/29 02:47:15;;;;;;;0.40;0.40;;;;;;;;;;5044780;28;20665;-72
2023/07/29 02:49:41;;;;;;;0.40;0.40;;;;;;;;;;5024086;28;20444;-72
2023/07/29 02:52:07;;;;;;;0.40;0.40;;;16.90;99.90;;;;;;5027118;28;20041;-72
2023/07/29 02:54:33;;;;;;;0.50;0.50;;;;;;;;;;5026238;28;20095;-72
2023/07/29 02:57:00;;;;;;;0.40;0.40;;;;;;;;;;5024159;28;20037;-72
2023/07/29 02:59:26;;;;;;;0.75;0.75;;;;;;;;;;5026124;28;20123;-72
2023/07/29 03:01:53;;;;;;;0.38;0.38;;;;;;;;;;5026126;28;20037;-72
2023/07/29 03:04:19;;;;;;;0.73;0.73;;;16.80;99.90;;;;;;5025205;28;20451;-72
2023/07/29 03:06:46;;;;;;;0.40;0.40;;;;;;;;;;5027457;28;20041;-72
2023/07/29 03:09:12;;;;;;;0.40;0.40;;;;;;;;;;5026174;28;20123;-72
2023/07/29 03:11:38;;;;;;;0.30;0.30;;;;;;;;;;5026841;28;20296;-72
2023/07/29 03:14:04;;;;;;;0.52;0.52;;;;;;;;;;5024703;28;20095;-72
2023/07/29 03:16:30;;;;;;;1.17;0.95;;;;;;;;;;5024254;28;20041;-72
2023/07/29 03:18:57;;;;;;;0.47;0.47;;;;;;;;;;5024787;28;20052;-72
2023/07/29 03:21:23;;;;;;;0.30;0.30;;;17.00;99.90;;;;;;5021488;28;21921;-72
2023/07/29 03:23:49;;;;;;;0.43;0.43;;;;;;;;;;5025171;28;20034;-72
2023/07/29 03:26:15;;;;;;;0.35;0.35;;;;;;;;;;5013815;28;20040;-72
2023/07/29 03:28:42;;;;;;;0.57;0.57;;;17.00;99.90;;;;;;5026891;28;20044;-72
2023/07/29 03:31:08;;;;;;;0.32;0.32;;;;;;;;;;5027540;28;20041;-72
2023/07/29 03:33:34;;;;;;;0.50;0.50;;;;;;;;;;5023469;28;20055;-72
2023/07/29 03:36:00;;;;;;;0.30;0.30;;;16.80;99.90;;;;;;5022119;28;20053;-72
2023/07/29 03:38:27;;;;;;;0.40;0.40;;;;;;;;;;5039130;28;20049;-73
2023/07/29 03:40:53;;;;;;;0.40;0.40;;;;;;;;;;5018638;28;20041;-72
2023/07/29 03:43:19;;;;;;;0.32;0.32;;;;;;;;;;5023991;28;20073;-71
2023/07/29 03:45:46;;;;;;;0.68;0.68;;;;;;;;;;5001501;28;20049;-70
2023/07/29 03:48:12;;;;;;;0.45;0.45;;;;;;;;;;5021233;28;20052;-73
2023/07/29 03:50:38;;;;;;;0.85;0.85;;;16.80;99.90;;;;;;5019028;28;20047;-73
2023/07/29 03:53:04;;;;;;;0.40;0.40;;;16.70;99.90;;;;;;5022736;28;20068;-73
2023/07/29 03:55:30;;;;;;;0.40;0.40;;;16.70;99.90;;;;;;5017012;28;20916;-71
2023/07/29 03:57:57;;;;;;;0.40;0.40;;;;;;;;;;5023464;28;20493;-72
2023/07/29 04:00:23;;;;;;;0.90;0.50;;;;;;;;;;5025412;28;20033;-73
2023/07/29 04:02:50;;;;;;;0.40;0.40;;;16.80;99.90;;;;;;5005295;28;20033;-72
2023/07/29 04:05:16;;;;;;;0.45;0.45;;;;;;;;;;5023796;28;20046;-71
2023/07/29 04:07:43;;;;;;;0.50;0.50;;;;;;;;;;5022723;28;20444;-73
2023/07/29 04:10:09;;;;;;;0.50;0.50;;;;;;;;;;5023434;28;20038;-72
2023/07/29 04:12:35;;;;;;;0.30;0.30;;;;;;;;;;5019805;28;20468;-72
2023/07/29 04:15:02;;;;;;;0.52;0.52;;;16.50;99.90;;;;;;5004841;28;20037;-72
2023/07/29 04:17:28;;;;;;;0.40;0.40;;;;;;;;;;5027861;28;20053;-72
2023/07/29 04:19:53;;;;;;;0.30;0.30;;;16.50;99.90;;;;;;5006214;28;20064;-72
2023/07/29 04:22:19;;;;;;;0.40;0.40;;;;;;;;;;5027931;28;20037;-73
2023/07/29 04:24:48;;;;;;;0.40;0.40;;;;;;;;;;5025065;28;20036;-72
2023/07/29 04:27:14;;;;;;;0.50;0.50;;;;;;;;;;5031109;28;20513;-72
2023/07/29 04:29:41;;;;;;;0.30;0.30;;;;;;;;;;5018861;28;20053;-73
2023/07/29 04:32:07;;;;;;;0.30;0.30;;;;;;;;;;5025881;28;20060;-72
2023/07/29 04:34:33;;;;;;;0.68;0.68;;;;;;;;;;5020144;28;20174;-72
2023/07/29 04:36:59;;;;;;;0.30;0.30;;;;;;;;;;5008036;28;20484;-72
2023/07/29 04:39:25;;;;;;;0.45;0.45;;;;;;;;;;5024356;28;20119;-72
2023/07/29 04:41:51;;;;;;;0.40;0.40;;;;;;;;;;4998045;28;20034;-72
2023/07/29 04:44:18;;;;;;;0.55;0.55;;;;;;;;;;5023471;28;20073;-72
2023/07/29 04:46:44;;;;;;;0.30;0.30;;;;;;;;;;5034036;28;20042;-72
2023/07/29 04:49:09;;;;;;;0.40;0.40;;;16.60;99.90;;;;;;5018596;28;20052;-72
2023/07/29 04:51:37;;;;;;;0.68;0.68;;;;;;;;;;5025145;28;20063;-72
2023/07/29 04:54:03;;;;;;;0.60;0.60;;;;;;;;;;5030267;28;20104;-72
2023/07/29 04:56:29;;;;;;;0.40;0.40;;;;;;;;;;5021836;28;20060;-72
2023/07/29 04:58:55;;;;;;;0.40;0.40;;;;;;;;;;5032727;28;20084;-72
2023/07/29 05:01:21;;;;;;;0.90;0.90;;;;;;;;;;5025721;28;20475;-72
2023/07/29 05:03:47;;;;;;;0.73;0.73;;;16.70;99.90;;;;;;5012570;28;20828;-72
2023/07/29 05:06:13;;;;;;;0.82;0.82;;;16.70;99.90;;;;;;5032009;28;20053;-72
2023/07/29 05:08:39;;;;;;;0.40;0.40;;;;;;;;;;5035409;28;20140;-72
2023/07/29 05:11:05;;;;;;;0.50;0.50;;;;;;;;;;5032035;28;20072;-72
2023/07/29 05:13:31;;;;;;;0.40;0.40;;;;;;;;;;5014701;28;20037;-72
2023/07/29 05:15:57;;;;;;;0.40;0.40;;;16.70;99.90;;;;;;5027533;28;20045;-71
2023/07/29 05:18:23;;;;;;;0.40;0.40;;;;;;;;;;5010355;28;20499;-72
2023/07/29 05:20:49;;;;;;;0.45;0.45;;;;;;;;;;5030362;28;20041;-72
2023/07/29 05:23:15;;;;;;;0.40;0.40;;;;;;;;;;5008651;28;20119;-72
2023/07/29 05:25:41;;;;;;;0.40;0.40;;;;;;;;;;5025029;28;20049;-72
2023/07/29 05:28:07;;;;;;;0.40;0.40;;;;;;;;;;5012614;28;20038;-72
2023/07/29 05:30:37;;;;;;;0.30;0.30;;;;;;;;;;5031586;28;20057;-73
2023/07/29 05:33:04;;;;;;;0.40;0.40;;;;;;;;;;5027829;28;20037;-72
2023/07/29 05:35:30;;;;;;;0.30;0.30;;;;;;;;;;5022349;28;20092;-72
2023/07/29 05:41:19;;;;;;;0.40;0.40;;;;;;;;;;5017899;28;20417;-71
2023/07/29 05:43:46;;;;;;;0.70;0.70;;;;;;;;;;5025047;28;20037;-72
2023/07/29 05:46:13;;;;;;;0.50;0.50;;;;;;;;;;5027117;28;20059;-72
2023/07/29 05:48:39;;;;;;;1.48;1.38;;;;;;;;;;5026742;28;20103;-73
2023/07/29 05:51:05;;;;;;;0.40;0.40;;;;;;;;;;5027239;28;20088;-72
2023/07/29 05:53:31;;;;;;;0.55;0.55;;;;;;;;;;5033147;28;20047;-72
2023/07/29 05:55:58;;;;;;;0.40;0.40;;;;;;;;;;5034759;28;20128;-72
2023/07/29 05:58:23;;;;;;;0.40;0.40;;;17.10;99.90;;;;;;5009218;28;20067;-72
2023/07/29 06:00:50;;;;;;;0.50;0.50;;;;;;;;;;5009594;28;20049;-72
2023/07/29 06:03:16;;;;;;;1.00;0.70;;;;;;;;;;5011665;28;20041;-73
2023/07/29 06:05:42;;;;;;;0.50;0.50;;;;;;;;;;5022853;28;20042;-72
2023/07/29 06:08:08;;;;;;;0.60;0.60;;;;;;;;;;5029336;28;20052;-73
2023/07/29 06:10:35;;;;;;;0.55;0.55;;;;;;;;;;5010083;28;20045;-73
2023/07/29 06:13:01;;;;;;;0.40;0.40;;;;;;;;;;5010409;28;20041;-74
2023/07/29 06:15:27;;;;;;;0.30;0.30;;;;;;;;;;5027914;28;20041;-73
2023/07/29 06:17:53;;;;;;;0.30;0.30;;;;;;;;;;5031026;28;20128;-74
2023/07/29 06:20:20;;;;;;;0.40;0.40;;;;;;;;;;5014143;28;20127;-75
2023/07/29 06:22:45;;;;;;;0.40;0.40;;;17.50;99.90;;;;;;5032100;28;20045;-73
2023/07/29 06:25:11;;;;;;;0.30;0.30;;;;;;;;;;5022063;28;20059;-74
2023/07/29 06:27:38;;;;;;;0.40;0.40;;;;;;;;;;5011268;28;20034;-74
2023/07/29 06:30:04;;;;;;;0.40;0.40;;;;;;;;;;5022174;28;20037;-73
2023/07/29 06:32:30;;;;;;;0.82;0.82;;;;;;;;;;5029174;28;20048;-74
2023/07/29 06:34:57;;;;;;;0.35;0.35;;;;;;;;;;5009797;28;20049;-74
2023/07/29 06:37:23;;;;;;;1.10;0.52;;;;;;;;;;5027426;28;20313;-74
2023/07/29 06:39:49;;;;;;;0.60;0.60;;;;;;;;;;5028758;28;20041;-73
2023/07/29 06:42:15;;;;;;;0.30;0.30;;;;;;;;;;5012219;28;20142;-74
2023/07/29 06:44:42;;;;;;;0.50;0.50;;;;;;;;;;5007142;28;20168;-73
2023/07/29 06:47:08;;;;;;;0.40;0.40;;;;;;;;;;5025678;28;20041;-73
2023/07/29 06:49:34;;;;;;;0.70;0.70;;;;;;;;;;5022695;28;20173;-73
2023/07/29 06:52:00;;;;;;;0.50;0.50;;;;;;;;;;5004897;28;20041;-76
2023/07/29 06:54:26;;;;;;;0.40;0.40;;;;;;;;;;5010443;28;20042;-73
2023/07/29 06:56:53;;;;;;;0.63;0.63;;;;;;;;;;5027830;28;20069;-73
2023/07/29 06:59:19;;;;;;;1.02;1.02;;;;;;;;;;5022396;28;20049;-74
2023/07/29 07:01:45;;;;;;;0.40;0.40;;;18.20;99.90;;;;;;5024798;28;20041;-74
2023/07/29 07:04:11;;;;;;;1.38;0.75;;;;;;;;;;5029854;28;20045;-73
2023/07/29 07:06:37;;;;;;;1.15;1.15;;;18.40;99.90;;;;;;5023603;28;20044;-73
2023/07/29 07:09:03;;;;;;;1.02;1.02;;;18.50;99.90;;;;;;5025089;28;20459;-74
2023/07/29 07:11:28;;;;;;;0.40;0.40;;;18.60;99.90;;;;;;5025977;28;20025;-73
2023/07/29 07:13:54;;;;;;;0.40;0.40;;;;;;;;;;5025094;28;20557;-73
2023/07/29 07:16:20;;;;;;;0.73;0.73;;;19.10;99.90;;;;;;5010377;28;20047;-73
2023/07/29 07:18:46;;;;;;;0.80;0.80;;;;;;;;;;5009668;28;20041;-73
2023/07/29 07:21:12;;;;;;;0.77;0.77;;;19.30;99.90;;;;;;5023998;28;20038;-73
2023/07/29 07:23:39;;;;;;;1.48;1.38;;;19.30;99.90;;;;;;5006467;28;20056;-73
2023/07/29 07:26:05;;;;;;;0.55;0.55;;;19.70;99.90;;;;;;5027240;28;20029;-72
2023/07/29 07:28:31;;;;;;;0.85;0.85;;;19.50;99.90;;;;;;5027762;28;20503;-72
2023/07/29 07:30:57;;;;;;;0.60;0.60;;;;;;;;;;5025209;28;20048;-71
2023/07/29 07:33:23;;;;;;;0.40;0.40;;;19.80;99.90;;;;;;5023366;28;20496;-71
2023/07/29 07:35:49;;;;;;;0.40;0.40;;;19.70;99.90;;;;;;5014591;28;20057;-71
2023/07/29 07:38:14;;;;;;;0.80;0.80;;;20.10;99.90;;;;;;5017332;28;20053;-71
2023/07/29 07:40:41;;;;;;;0.70;0.70;;;;;;;;;;5012597;28;20041;-71
2023/07/29 07:43:06;;;;;;;0.98;0.98;;;20.10;99.90;;;;;;5016537;28;20158;-72
2023/07/29 07:45:32;;;;;;;0.85;0.85;;;20.40;99.90;;;;;;4998394;28;20555;-71
2023/07/29 07:47:58;;;;;;;0.65;0.65;;;20.10;99.90;;;;;;5016569;28;20045;-71
2023/07/29 07:50:24;;;;;;;1.20;1.00;;;20.20;99.90;;;;;;5017178;28;20042;-71
2023/07/29 07:52:50;;;;;;;0.73;0.73;;;;;;;;;;5018594;28;20060;-71
2023/07/29 07:55:16;;;;;;;3.72;1.35;;;20.60;99.90;;;;;;4997924;28;20041;-71
2023/07/29 07:57:42;;;;;;;0.52;0.52;;;20.80;99.90;;;;;;5017508;28;20524;-71
2023/07/29 08:00:09;;;;;;;0.40;0.40;;;21.00;99.90;;;;;;5014601;28;20138;-71
2023/07/29 08:02:35;;;;;;;0.40;0.40;;;20.60;99.90;;;;;;5016357;28;20045;-71
2023/07/29 08:05:01;;;;;;;0.98;0.93;;;20.70;99.90;;;;;;5014836;28;20060;-72
2023/07/29 08:07:26;;;;;;;0.85;0.85;;;20.70;99.90;;;;;;5015777;28;20042;-72
2023/07/29 08:09:52;;;;;;;1.05;1.05;;;20.70;99.90;;;;;;5016900;28;20045;-72
2023/07/29 08:12:18;;;;;;;1.00;0.95;;;20.70;99.90;;;;;;4997477;28;20072;-72
2023/07/29 08:14:44;;;;;;;1.70;1.60;;;21.20;99.90;;;;;;5015880;28;20095;-71
2023/07/29 08:17:12;;;;;;;0.50;0.50;;;21.20;99.90;;;;;;4998913;28;20041;-72
2023/07/29 08:19:47;;;;;;;0.73;0.73;;;21.40;99.90;;;;;;5012557;28;20050;-71
2023/07/29 08:22:13;;;;;;;0.52;0.52;;;21.20;99.90;;;;;;5015257;28;20103;-72
2023/07/29 08:24:39;;;;;;;0.90;0.90;;;21.20;99.90;;;;;;5016664;28;20033;-72
2023/07/29 08:27:05;;;;;;;1.48;1.25;;;21.90;99.90;;;;;;4999361;28;20049;-71
2023/07/29 08:29:31;;;;;;;1.95;1.08;;;21.50;99.90;;;;;;5021616;28;20397;-72
2023/07/29 08:31:56;;;;;;;0.70;0.70;;;21.50;99.90;;;;;;5017765;28;20103;-72
2023/07/29 08:34:22;;;;;;;1.20;1.15;;;22.10;99.90;;;;;;5018224;28;20124;-72
2023/07/29 08:36:48;;;;;;;1.25;1.23;;;22.20;99.90;;;;;;5030942;28;20175;-72
2023/07/29 08:39:14;;;;;;;1.30;1.20;;;21.90;99.90;;;;;;5021842;28;20135;-72
2023/07/29 08:42:11;;;;;;;0.68;0.68;;;22.30;99.90;;;;;;5023864;28;20052;-73
2023/07/29 08:44:41;;;;;;;0.68;0.68;;;22.10;99.90;;;;;;5020646;28;20052;-72
2023/07/29 08:47:07;;;;;;;0.85;0.50;;;22.80;99.90;;;;;;5021073;28;20071;-72
2023/07/29 08:49:33;;;;;;;1.02;0.98;;;22.50;99.90;;;;;;5021340;28;20080;-74
2023/07/29 08:52:01;;;;;;;0.88;0.88;;;22.70;99.90;;;;;;5001376;28;20083;-71
2023/07/29 08:54:26;;;;;;;0.45;0.43;;;22.60;99.90;;;;;;5021470;28;20033;-72
2023/07/29 08:56:52;;;;;;;1.05;0.55;;;22.50;99.90;;;;;;5021802;28;20051;-72
2023/07/29 08:59:19;;;;;;;0.82;0.82;;;23.00;99.90;;;;;;5020433;28;20124;-72
2023/07/29 09:01:45;;;;;;;0.60;0.60;;;22.50;99.90;;;;;;5018578;28;20036;-72
2023/07/29 09:04:10;;;;;;;0.50;0.50;;;22.40;99.90;;;;;;5039870;28;20040;-72
2023/07/29 09:06:40;;;;;;;0.93;0.93;;;22.70;99.90;;;;;;5038572;28;20043;-71
2023/07/29 09:09:07;;;;;;;1.13;0.98;;;22.50;99.90;;;;;;5039763;28;20037;-72
2023/07/29 09:11:33;;;;;;;0.90;0.90;;;22.80;99.90;;;;;;5005328;28;20123;-72
2023/07/29 09:13:59;;;;;;;0.95;0.93;;;22.70;99.90;;;;;;5024928;28;20123;-70
2023/07/29 09:16:25;;;;;;;0.68;0.68;;;22.70;99.90;;;;;;5022063;28;20033;-71
2023/07/29 09:18:52;;;;;;;1.15;1.10;;;22.70;99.90;;;;;;5021076;28;20037;-71
2023/07/29 09:21:18;;;;;;;0.98;0.98;;;;;;;;;;5023115;28;20075;-71
2023/07/29 09:23:45;;;;;;;0.40;0.40;;;23.00;99.90;;;;;;5004244;28;20039;-71
2023/07/29 09:26:11;;;;;;;0.75;0.75;;;22.70;99.90;;;;;;5025931;28;20069;-70
2023/07/29 09:28:39;;;;;;;0.50;0.50;;;22.80;99.90;;;;;;5003722;28;20041;-71
2023/07/29 09:31:04;;;;;;;;;;;23.30;99.90;;;;;;5021142;28;20052;-70
2023/07/29 09:33:37;;;;;;;0.30;0.30;;;23.30;99.90;;;;;;5026122;28;19974;-71
2023/07/29 09:36:09;;;;;;;0.40;0.40;;;23.90;99.90;;;;;;5003845;28;20187;-72
2023/07/29 09:38:35;;;;;;;0.80;0.80;;;23.90;99.90;;;;;;5041592;28;20052;-71
2023/07/29 09:41:02;;;;;;;3.33;0.95;;;24.10;99.90;;;;;;5019986;28;20041;-72
2023/07/29 09:43:35;;;;;;;1.13;1.10;;;24.40;99.90;;;;;;5019982;28;20127;-72
2023/07/29 09:46:02;;;;;;;0.30;0.30;;;24.50;99.90;;;;;;5017835;28;20047;-72
2023/07/29 09:48:31;;;;;;;0.68;0.68;;;25.10;99.90;;;;;;5023194;28;20492;-71
2023/07/29 09:50:57;;;;;;;1.15;1.08;;;25.20;99.90;;;;;;5004522;28;20128;-71
2023/07/29 09:53:24;;;;;;;0.50;0.50;;;25.20;99.90;;;;;;5017781;28;20268;-73
2023/07/29 09:55:50;;;;;;;0.70;0.70;;;24.80;99.90;;;;;;5019818;28;20072;-72
2023/07/29 09:58:26;;;;;;;1.20;1.10;;;24.80;99.90;;;;;;5021745;28;20048;-71
2023/07/29 10:00:52;;;;;;;0.47;0.47;;;24.80;99.90;;;;;;5022007;28;20183;-72
2023/07/29 10:03:21;;;;;;;0.50;0.50;;;24.60;99.90;;;;;;5025643;28;20041;-71
2023/07/29 10:05:47;;;;;;;0.50;0.50;;;24.50;99.90;;;;;;5019700;28;20037;-73
2023/07/29 10:08:13;;;;;;;0.40;0.35;;;25.00;99.90;;;;;;5025716;28;20119;-71
2023/07/29 10:10:42;;;;;;;0.50;0.50;;;24.50;99.90;;;;;;5003347;28;20045;-71
2023/07/29 10:13:10;;;;;;;0.30;0.30;;;25.10;99.90;;;;;;5026469;28;20045;-71
2023/07/29 10:15:36;;;;;;;1.10;0.95;;;24.90;99.90;;;;;;5023246;28;20487;-72
2023/07/29 10:18:03;;;;;;;0.60;0.60;;;25.20;99.90;;;;;;5025182;28;20049;-74
2023/07/29 10:20:31;;;;;;;0.70;0.70;;;25.50;99.90;;;;;;5026436;28;20131;-73
2023/07/29 10:22:59;;;;;;;1.45;0.73;;;25.30;99.90;;;;;;5007631;28;20063;-73
2023/07/29 10:25:29;;;;;;;0.50;0.50;;;25.10;99.90;;;;;;5024991;28;20032;-78
2023/07/29 10:28:10;;;;;;;0.30;0.30;;;25.00;99.90;;;;;;5001889;28;20098;-73
2023/07/29 10:30:36;;;;;;;1.20;1.10;;;25.40;99.90;;;;;;5020925;28;20073;-73
2023/07/29 10:33:04;;;;;;;0.60;0.60;;;25.40;99.90;;;;;;5002223;28;20072;-73
2023/07/29 10:35:32;;;;;;;0.40;0.40;;;25.20;99.90;;;;;;5024685;28;20056;-73
2023/07/29 10:37:59;;;;;;;1.10;1.08;;;25.10;99.90;;;;;;5009151;28;20175;-73
2023/07/29 10:40:25;;;;;;;1.23;0.85;;;25.10;99.90;;;;;;5027309;28;20534;-73
2023/07/29 10:43:10;;;;;;;0.65;0.65;;;25.60;99.90;;;;;;5024347;28;20048;-71
2023/07/29 10:45:38;;;;;;;0.93;0.93;;;25.40;99.90;;;;;;5020274;28;20098;-73
2023/07/29 10:48:10;;;;;;;;;;;25.50;99.90;;;;;;5008455;28;20040;-72
2023/07/29 10:50:36;;;;;;;1.00;1.00;;;25.60;99.90;;;;;;5024666;28;19931;-72
2023/07/29 10:53:02;;;;;;;1.00;1.00;;;25.70;99.90;;;;;;5009356;28;20041;-71
2023/07/29 10:55:38;;;;;;;0.40;0.40;;;26.00;99.90;;;;;;5003093;28;20040;-73
2023/07/29 10:58:11;;;;;;;1.13;1.10;;;25.80;99.90;;;;;;5020878;28;20037;-74
2023/07/29 11:00:38;;;;;;;0.60;0.60;;;26.40;99.90;;;;;;5000378;28;20319;-73
2023/07/29 11:03:08;;;;;;;3.83;1.13;;;26.10;99.90;;;;;;5017925;28;20037;-73
2023/07/29 11:05:51;;;;;;;0.68;0.68;;;26.30;99.90;;;;;;5019960;28;20053;-73
2023/07/29 11:08:21;;;;;;;0.57;0.57;;;25.90;99.90;;;;;;5038607;28;20060;-74
2023/07/29 11:11:03;;;;;;;1.10;1.10;;;26.20;99.90;;;;;;5008718;28;20082;-74
2023/07/29 11:13:34;;;;;;;0.73;0.73;;;25.80;99.90;;;;;;5027335;28;20127;-73
2023/07/29 11:16:01;;;;;;;0.50;0.50;;;25.80;99.90;;;;;;5002209;28;20044;-73
2023/07/29 11:18:33;;;;;;;0.50;0.50;;;26.10;99.90;;;;;;5027358;28;20499;-73
2023/07/29 11:21:00;;;;;;;0.60;0.60;;;26.30;99.90;;;;;;5009020;28;20037;-73
2023/07/29 11:23:36;;;;;;;0.88;0.88;;;26.10;99.90;;;;;;5006204;28;20032;-73
2023/07/29 11:26:03;;;;;;;0.60;0.60;;;25.80;99.90;;;;;;5023618;28;20107;-73
2023/07/29 11:28:30;;;;;;;1.00;0.90;;;25.20;99.90;;;;;;5032605;28;20717;-72
2023/07/29 11:30:56;;;;;;;0.93;0.93;;;24.70;99.90;;;;;;5022485;28;20048;-72
2023/07/29 11:33:25;;;;;;;0.50;0.50;;;24.60;99.90;;;;;;5010978;28;20091;-72
2023/07/29 11:35:51;;;;;;;0.50;0.50;;;24.20;99.90;;;;;;5019779;28;20061;-72
2023/07/29 11:38:19;;;;;;;0.65;0.65;;;24.10;99.90;;;;;;5020149;28;20041;-72
2023/07/29 11:40:58;;;;;;;0.52;0.52;;;23.40;99.90;;;;;;5001825;28;20041;-72
2023/07/29 11:43:24;;;;;;;0.30;0.30;;;23.60;99.90;;;;;;5037893;28;20099;-72
2023/07/29 11:45:50;;;;;;;0.22;0.22;;;23.10;99.90;;;;;;5022225;28;20311;-72
2023/07/29 11:48:16;;;;;;;0.50;0.50;;;23.10;99.90;;;;;;5017346;28;20037;-72
2023/07/29 11:50:42;;;;;;;0.55;0.55;;;23.30;99.90;;;;;;5021104;28;20354;-72
2023/07/29 11:56:14;;;;;;;0.93;0.93;;;23.70;99.90;;;;;;5157303;22;20409;-71
2023/07/29 11:58:40;;;;;;;0.45;0.45;;;24.10;99.90;;;;;;5014911;28;20302;-71
2023/07/29 12:01:07;;;;;;;0.70;0.70;;;24.00;99.90;;;;;;5022563;28;20110;-72
2023/07/29 12:03:33;;;;;;;0.40;0.40;;;23.60;99.90;;;;;;5018716;28;20933;-72
2023/07/29 12:05:59;;;;;;;0.80;0.80;;;23.60;99.90;;;;;;5007117;28;20038;-72
2023/07/29 12:08:26;;;;;;;0.90;0.90;;;23.30;99.90;;;;;;5006677;28;20041;-71
2023/07/29 12:10:51;;;;;;;0.57;0.57;;;23.50;99.90;;;;;;5004626;28;20045;-77
2023/07/29 12:13:17;;;;;;;0.50;0.50;;;23.20;99.90;;;;;;5004995;28;20619;-73
2023/07/29 12:15:43;;;;;;;1.08;1.00;;;23.10;99.90;;;;;;5004932;28;20619;-72
2023/07/29 12:18:09;;;;;;;1.30;1.17;;;23.30;99.90;;;;;;5000854;28;20572;-72
2023/07/29 12:20:34;;;;;;;0.50;0.50;;;23.60;99.90;;;;;;5002628;28;20045;-72
2023/07/29 12:23:02;;;;;;;0.40;0.40;;;23.50;99.90;;;;;;5004338;28;20041;-71
2023/07/29 12:25:29;;;;;;;1.98;0.90;;;23.20;99.90;;;;;;4985758;28;20107;-72
2023/07/29 12:27:55;;;;;;;1.13;1.13;;;23.40;99.90;;;;;;4989218;28;20044;-72
2023/07/29 12:30:22;;;;;;;0.65;0.65;;;23.70;99.90;;;;;;4988991;28;20037;-72
2023/07/29 12:32:48;;;;;;;0.73;0.73;;;23.70;99.90;;;;;;4993546;28;20485;-72
2023/07/29 12:35:14;;;;;;;1.10;1.00;;;23.50;99.90;;;;;;5008881;28;20264;-72
2023/07/29 12:37:42;;;;;;;1.52;1.38;;;23.60;99.90;;;;;;5003884;28;20060;-72
2023/07/29 12:40:29;;;;;;;0.47;0.47;;;24.00;99.90;;;;;;5005533;28;20042;-72
2023/07/29 12:42:55;;;;;;;0.60;0.60;;;23.60;99.90;;;;;;5006146;28;20443;-72
2023/07/29 12:45:26;;;;;;;0.80;0.80;;;24.20;99.90;;;;;;5002181;28;20401;-72
2023/07/29 12:47:52;;;;;;;1.25;1.17;;;23.90;99.90;;;;;;5003669;28;20037;-72
2023/07/29 12:50:18;;;;;;;0.80;0.80;;;24.10;99.90;;;;;;5003364;28;20534;-71
2023/07/29 12:52:43;;;;;;;0.80;0.80;;;24.30;99.90;;;;;;5005833;28;20050;-72
2023/07/29 12:55:12;;;;;;;0.55;0.55;;;24.30;99.90;;;;;;5002561;28;20054;-72
2023/07/29 12:57:39;;;;;;;1.00;1.00;;;24.50;99.90;;;;;;4985175;28;20522;-72
2023/07/29 13:00:06;;;;;;;0.40;0.40;;;24.60;99.90;;;;;;5001401;28;20081;-72
2023/07/29 13:02:32;;;;;;;1.25;1.15;;;24.60;99.90;;;;;;4986882;28;20104;-72
2023/07/29 13:04:57;;;;;;;1.17;1.08;;;24.80;99.90;;;;;;5000776;28;20033;-72
2023/07/29 13:07:23;;;;;;;0.32;0.32;;;24.30;99.90;;;;;;4984491;28;20046;-72
2023/07/29 13:09:49;;;;;;;0.50;0.50;;;24.30;99.90;;;;;;5002628;28;20054;-71
2023/07/29 13:12:14;;;;;;;0.43;0.43;;;24.20;99.90;;;;;;5002482;28;20133;-73
2023/07/29 13:14:40;;;;;;;0.40;0.40;;;24.50;99.90;;;;;;5005033;28;20390;-71
2023/07/29 13:17:05;;;;;;;0.65;0.65;;;24.30;99.90;;;;;;5004562;28;20501;-74
2023/07/29 13:19:31;;;;;;;0.80;0.80;;;24.60;99.90;;;;;;5003177;28;20359;-74
2023/07/29 13:21:57;;;;;;;0.88;0.88;;;24.70;99.90;;;;;;4998119;28;20076;-71
2023/07/29 13:24:22;;;;;;;6.70;1.13;;;24.30;99.90;;;;;;5003498;28;20508;-73
2023/07/29 13:26:48;;;;;;;0.90;0.90;;;24.20;99.90;;;;;;5000623;28;20385;-72
2023/07/29 13:29:14;;;;;;;0.60;0.60;;;24.10;99.90;;;;;;5003757;28;20493;-71
2023/07/29 13:31:39;;;;;;;0.75;0.73;;;24.20;99.90;;;;;;4985783;28;20805;-72
2023/07/29 13:34:05;;;;;;;0.57;0.57;;;24.70;99.90;;;;;;5002411;28;21145;-72
2023/07/29 13:36:31;;;;;;;0.50;0.50;;;24.90;99.90;;;;;;4999749;28;20540;-70